sensor_id;sensor_type;location;lat;lon;timestamp;pressure;altitude;pressure_sealevel;temperature;humidity
11038;BME280;5572;49.540;11.932;2023-04-25T00:01:20;95862.41;;;6.81;100.00
11038;BME280;5572;49.540;11.932;2023-04-25T00:03:47;95865.34;;;6.79;100.00
11038;BME280;5572;49.540;11.932;2023-04-25T00:06:13;95869.63;;;6.85;100.00
11038;BME280;5572;49.540;11.932;2023-04-25T00:08:40;95873.06;;;6.90;100.00
11038;BME280;5572;49.540;11.932;2023-04-25T00:11:07;95879.47;;;6.66;100.00
11038;BME280;5572;49.540;11.932;2023-04-25T00:13:35;95868.41;;;6.73;100.00
11038;BME280;5572;49.540;11.932;2023-04-25T00:16:02;95878.00;;;6.79;100.00
11038;BME280;5572;49.540;11.932;2023-04-25T00:18:29;95868.75;;;6.89;100.00
11038;BME280;5572;49.540;11.932;2023-04-25T00:20:58;95880.16;;;6.77;100.00
11038;BME280;5572;49.540;11.932;2023-04-25T00:23:25;95882.28;;;6.80;100.00
11038;BME280;5572;49.540;11.932;2023-04-25T00:25:52;95881.47;;;6.79;100.00
11038;BME280;5572;49.540;11.932;2023-04-25T00:28:18;95881.44;;;6.84;100.00
11038;BME280;5572;49.540;11.932;2023-04-25T00:30:47;95875.88;;;6.76;100.00
11038;BME280;5572;49.540;11.932;2023-04-25T00:33:13;95865.88;;;6.81;100.00
11038;BME280;5572;49.540;11.932;2023-04-25T00:35:40;95883.59;;;6.82;100.00
11038;BME280;5572;49.540;11.932;2023-04-25T00:38:07;95882.72;;;6.91;100.00
11038;BME280;5572;49.540;11.932;2023-04-25T00:40:33;95879.41;;;6.99;100.00
11038;BME280;5572;49.540;11.932;2023-04-25T00:43:00;95869.97;;;7.02;100.00
11038;BME280;5572;49.540;11.932;2023-04-25T00:45:28;95881.53;;;7.02;100.00
11038;BME280;5572;49.540;11.932;2023-04-25T00:47:57;95875.41;;;6.97;100.00
11038;BME280;5572;49.540;11.932;2023-04-25T00:50:24;95870.94;;;6.87;100.00
11038;BME280;5572;49.540;11.932;2023-04-25T00:52:51;95870.41;;;6.85;100.00
11038;BME280;5572;49.540;11.932;2023-04-25T00:55:19;95865.78;;;6.91;100.00
11038;BME280;5572;49.540;11.932;2023-04-25T00:57:46;95879.75;;;6.93;100.00
11038;BME280;5572;49.540;11.932;2023-04-25T01:00:13;95866.13;;;6.84;100.00
11038;BME280;5572;49.540;11.932;2023-04-25T01:02:41;95875.59;;;6.77;100.00
11038;BME280;5572;49.540;11.932;2023-04-25T01:05:09;95880.91;;;6.82;100.00
11038;BME280;5572;49.540;11.932;2023-04-25T01:07:37;95875.31;;;6.79;100.00
11038;BME280;5572;49.540;11.932;2023-04-25T01:10:05;95872.63;;;6.79;100.00
11038;BME280;5572;49.540;11.932;2023-04-25T01:12:32;95873.84;;;6.91;100.00
11038;BME280;5572;49.540;11.932;2023-04-25T01:14:59;95880.81;;;6.92;100.00
11038;BME280;5572;49.540;11.932;2023-04-25T01:17:26;95865.97;;;6.99;100.00
11038;BME280;5572;49.540;11.932;2023-04-25T01:19:53;95870.47;;;6.81;100.00
11038;BME280;5572;49.540;11.932;2023-04-25T01:22:21;95872.91;;;6.77;100.00
11038;BME280;5572;49.540;11.932;2023-04-25T01:24:48;95875.78;;;6.85;100.00
11038;BME280;5572;49.540;11.932;2023-04-25T01:27:15;95873.28;;;6.94;100.00
11038;BME280;5572;49.540;11.932;2023-04-25T01:29:42;95869.97;;;7.02;100.00
11038;BME280;5572;49.540;11.932;2023-04-25T01:32:09;95867.50;;;7.10;100.00
11038;BME280;5572;49.540;11.932;2023-04-25T01:34:36;95873.75;;;7.01;100.00
11038;BME280;5572;49.540;11.932;2023-04-25T01:37:03;95869.97;;;7.02;100.00
11038;BME280;5572;49.540;11.932;2023-04-25T01:39:31;95861.59;;;7.08;100.00
11038;BME280;5572;49.540;11.932;2023-04-25T01:41:59;95861.56;;;7.13;100.00
11038;BME280;5572;49.540;11.932;2023-04-25T01:44:25;95860.19;;;7.16;100.00
11038;BME280;5572;49.540;11.932;2023-04-25T01:46:52;95855.47;;;7.26;100.00
11038;BME280;5572;49.540;11.932;2023-04-25T01:49:19;95865.03;;;7.14;100.00
11038;BME280;5572;49.540;11.932;2023-04-25T01:51:46;95858.25;;;7.21;100.00
11038;BME280;5572;49.540;11.932;2023-04-25T01:54:13;95871.59;;;7.26;100.00
11038;BME280;5572;49.540;11.932;2023-04-25T01:56:41;95869.91;;;7.35;100.00
11038;BME280;5572;49.540;11.932;2023-04-25T01:59:08;95870.06;;;7.44;100.00
11038;BME280;5572;49.540;11.932;2023-04-25T02:01:34;95870.81;;;7.49;100.00
11038;BME280;5572;49.540;11.932;2023-04-25T02:04:01;95871.22;;;7.38;100.00
11038;BME280;5572;49.540;11.932;2023-04-25T02:06:28;95863.44;;;7.36;100.00
11038;BME280;5572;49.540;11.932;2023-04-25T02:08:56;95852.13;;;7.39;100.00
11038;BME280;5572;49.540;11.932;2023-04-25T02:11:22;95861.91;;;7.30;100.00
11038;BME280;5572;49.540;11.932;2023-04-25T02:13:50;95853.88;;;7.25;100.00
11038;BME280;5572;49.540;11.932;2023-04-25T02:16:17;95863.22;;;7.33;100.00
11038;BME280;5572;49.540;11.932;2023-04-25T02:18:44;95856.41;;;7.40;100.00
11038;BME280;5572;49.540;11.932;2023-04-25T02:21:11;95863.16;;;7.38;100.00
11038;BME280;5572;49.540;11.932;2023-04-25T02:23:37;95862.81;;;7.44;100.00
11038;BME280;5572;49.540;11.932;2023-04-25T02:26:04;95862.06;;;7.62;100.00
11038;BME280;5572;49.540;11.932;2023-04-25T02:28:31;95850.09;;;7.50;100.00
11038;BME280;5572;49.540;11.932;2023-04-25T02:30:59;95851.88;;;7.59;100.00
11038;BME280;5572;49.540;11.932;2023-04-25T02:33:26;95849.25;;;7.54;100.00
11038;BME280;5572;49.540;11.932;2023-04-25T02:35:53;95831.78;;;7.52;100.00
11038;BME280;5572;49.540;11.932;2023-04-25T02:38:19;95824.69;;;7.61;100.00
11038;BME280;5572;49.540;11.932;2023-04-25T02:40:46;95834.66;;;7.60;100.00
11038;BME280;5572;49.540;11.932;2023-04-25T02:43:12;95820.34;;;7.65;100.00
11038;BME280;5572;49.540;11.932;2023-04-25T02:45:39;95816.69;;;7.56;100.00
11038;BME280;5572;49.540;11.932;2023-04-25T02:48:07;95813.94;;;7.61;100.00
11038;BME280;5572;49.540;11.932;2023-04-25T02:50:34;95809.16;;;7.58;100.00
11038;BME280;5572;49.540;11.932;2023-04-25T02:53:00;95809.88;;;7.63;100.00
11038;BME280;5572;49.540;11.932;2023-04-25T02:55:27;95814.81;;;7.56;100.00
11038;BME280;5572;49.540;11.932;2023-04-25T02:57:53;95815.66;;;7.52;100.00
11038;BME280;5572;49.540;11.932;2023-04-25T03:00:21;95812.09;;;7.56;100.00
11038;BME280;5572;49.540;11.932;2023-04-25T03:02:47;95811.59;;;7.54;100.00
11038;BME280;5572;49.540;11.932;2023-04-25T03:05:15;95812.72;;;7.53;100.00
11038;BME280;5572;49.540;11.932;2023-04-25T03:07:42;95814.34;;;7.49;100.00
11038;BME280;5572;49.540;11.932;2023-04-25T03:10:10;95810.16;;;7.43;100.00
11038;BME280;5572;49.540;11.932;2023-04-25T03:12:37;95825.75;;;7.41;100.00
11038;BME280;5572;49.540;11.932;2023-04-25T03:15:04;95825.75;;;7.41;100.00
11038;BME280;5572;49.540;11.932;2023-04-25T03:17:31;95820.53;;;7.50;100.00
11038;BME280;5572;49.540;11.932;2023-04-25T03:19:57;95828.97;;;7.43;100.00
11038;BME280;5572;49.540;11.932;2023-04-25T03:22:25;95823.22;;;7.50;100.00
11038;BME280;5572;49.540;11.932;2023-04-25T03:24:52;95835.34;;;7.47;100.00
11038;BME280;5572;49.540;11.932;2023-04-25T03:27:18;95829.19;;;7.47;100.00
11038;BME280;5572;49.540;11.932;2023-04-25T03:29:45;95829.19;;;7.47;100.00
11038;BME280;5572;49.540;11.932;2023-04-25T03:32:12;95834.84;;;7.45;100.00
11038;BME280;5572;49.540;11.932;2023-04-25T03:34:38;95830.78;;;7.48;100.00
11038;BME280;5572;49.540;11.932;2023-04-25T03:37:05;95824.81;;;7.51;100.00
11038;BME280;5572;49.540;11.932;2023-04-25T03:39:33;95822.84;;;7.38;100.00
11038;BME280;5572;49.540;11.932;2023-04-25T03:41:59;95823.13;;;7.36;100.00
11038;BME280;5572;49.540;11.932;2023-04-25T03:44:26;95823.19;;;7.31;100.00
11038;BME280;5572;49.540;11.932;2023-04-25T03:46:52;95827.81;;;7.26;100.00
11038;BME280;5572;49.540;11.932;2023-04-25T03:49:19;95828.72;;;7.16;100.00
11038;BME280;5572;49.540;11.932;2023-04-25T03:51:45;95823.97;;;7.08;100.00
11038;BME280;5572;49.540;11.932;2023-04-25T03:54:12;95829.31;;;7.13;100.00
11038;BME280;5572;49.540;11.932;2023-04-25T03:56:40;95773.44;;;7.10;100.00
11038;BME280;5572;49.540;11.932;2023-04-25T03:59:06;95771.19;;;7.17;100.00
11038;BME280;5572;49.540;11.932;2023-04-25T04:01:33;95775.78;;;7.17;100.00
11038;BME280;5572;49.540;11.932;2023-04-25T04:04:00;95776.47;;;7.04;100.00
11038;BME280;5572;49.540;11.932;2023-04-25T04:06:27;95783.75;;;7.03;100.00
11038;BME280;5572;49.540;11.932;2023-04-25T04:08:53;95789.13;;;7.03;100.00
11038;BME280;5572;49.540;11.932;2023-04-25T04:11:20;95791.84;;;6.98;100.00
11038;BME280;5572;49.540;11.932;2023-04-25T04:13:48;95780.13;;;6.89;100.00
11038;BME280;5572;49.540;11.932;2023-04-25T04:16:15;95786.28;;;6.90;100.00
11038;BME280;5572;49.540;11.932;2023-04-25T04:18:41;95794.63;;;6.88;100.00
11038;BME280;5572;49.540;11.932;2023-04-25T04:21:08;95792.69;;;6.94;100.00
11038;BME280;5572;49.540;11.932;2023-04-25T04:23:34;95801.63;;;6.89;100.00
11038;BME280;5572;49.540;11.932;2023-04-25T04:26:01;95804.81;;;6.91;100.00
11038;BME280;5572;49.540;11.932;2023-04-25T04:28:27;95811.72;;;6.97;100.00
11038;BME280;5572;49.540;11.932;2023-04-25T04:30:56;95817.66;;;6.94;100.00
11038;BME280;5572;49.540;11.932;2023-04-25T04:33:23;95818.19;;;6.96;100.00
11038;BME280;5572;49.540;11.932;2023-04-25T04:35:51;95822.44;;;7.02;100.00
11038;BME280;5572;49.540;11.932;2023-04-25T04:38:18;95792.78;;;7.12;100.00
11038;BME280;5572;49.540;11.932;2023-04-25T04:40:46;95790.19;;;7.26;100.00
11038;BME280;5572;49.540;11.932;2023-04-25T04:43:13;95790.28;;;7.39;100.00
11038;BME280;5572;49.540;11.932;2023-04-25T04:45:42;95787.03;;;7.42;100.00
11038;BME280;5572;49.540;11.932;2023-04-25T04:48:11;95795.56;;;7.26;100.00
11038;BME280;5572;49.540;11.932;2023-04-25T04:50:39;95797.09;;;7.32;100.00
11038;BME280;5572;49.540;11.932;2023-04-25T04:53:06;95790.38;;;7.53;100.00
11038;BME280;5572;49.540;11.932;2023-04-25T04:55:33;95794.84;;;7.62;100.00
11038;BME280;5572;49.540;11.932;2023-04-25T04:57:59;95784.72;;;7.72;100.00
11038;BME280;5572;49.540;11.932;2023-04-25T05:00:26;95797.88;;;7.74;100.00
11038;BME280;5572;49.540;11.932;2023-04-25T05:02:54;95793.19;;;7.84;100.00
11038;BME280;5572;49.540;11.932;2023-04-25T05:05:22;95800.22;;;7.80;100.00
11038;BME280;5572;49.540;11.932;2023-04-25T05:07:49;95786.34;;;7.73;100.00
11038;BME280;5572;49.540;11.932;2023-04-25T05:10:16;95800.94;;;7.86;100.00
11038;BME280;5572;49.540;11.932;2023-04-25T05:12:43;95800.72;;;7.82;100.00
11038;BME280;5572;49.540;11.932;2023-04-25T05:15:10;95788.09;;;7.83;100.00
11038;BME280;5572;49.540;11.932;2023-04-25T05:17:40;95781.19;;;7.95;100.00
11038;BME280;5572;49.540;11.932;2023-04-25T05:20:17;95778.56;;;8.09;100.00
11038;BME280;5572;49.540;11.932;2023-04-25T05:22:47;95778.03;;;8.07;100.00
11038;BME280;5572;49.540;11.932;2023-04-25T05:25:20;95769.06;;;8.16;100.00
11038;BME280;5572;49.540;11.932;2023-04-25T05:27:47;95771.59;;;8.26;100.00
11038;BME280;5572;49.540;11.932;2023-04-25T05:30:20;95753.63;;;8.22;100.00
11038;BME280;5572;49.540;11.932;2023-04-25T05:32:47;95728.50;;;8.08;100.00
11038;BME280;5572;49.540;11.932;2023-04-25T05:35:14;95730.00;;;8.14;100.00
11038;BME280;5572;49.540;11.932;2023-04-25T05:37:41;95717.94;;;8.11;100.00
11038;BME280;5572;49.540;11.932;2023-04-25T05:40:10;95709.38;;;8.28;100.00
11038;BME280;5572;49.540;11.932;2023-04-25T05:45:56;95690.31;;;8.24;100.00
11038;BME280;5572;49.540;11.932;2023-04-25T05:48:23;95690.44;;;8.14;100.00
11038;BME280;5572;49.540;11.932;2023-04-25T05:51:03;95688.50;;;8.20;100.00
11038;BME280;5572;49.540;11.932;2023-04-25T05:53:30;95681.53;;;8.19;100.00
11038;BME280;5572;49.540;11.932;2023-04-25T05:59:21;95680.97;;;8.35;100.00
11038;BME280;5572;49.540;11.932;2023-04-25T06:01:47;95680.66;;;8.37;100.00
11038;BME280;5572;49.540;11.932;2023-04-25T06:04:14;95679.91;;;8.50;100.00
11038;BME280;5572;49.540;11.932;2023-04-25T06:06:41;95676.31;;;8.67;100.00
11038;BME280;5572;49.540;11.932;2023-04-25T06:09:07;95679.72;;;8.59;100.00
11038;BME280;5572;49.540;11.932;2023-04-25T06:11:34;95669.25;;;8.58;100.00
11038;BME280;5572;49.540;11.932;2023-04-25T06:14:01;95660.75;;;8.64;100.00
11038;BME280;5572;49.540;11.932;2023-04-25T06:16:29;95654.06;;;8.62;100.00
11038;BME280;5572;49.540;11.932;2023-04-25T06:18:56;95659.75;;;8.60;100.00
11038;BME280;5572;49.540;11.932;2023-04-25T06:21:22;95650.28;;;8.50;100.00
11038;BME280;5572;49.540;11.932;2023-04-25T06:23:49;95645.19;;;8.61;100.00
11038;BME280;5572;49.540;11.932;2023-04-25T06:26:17;95632.72;;;8.65;100.00
11038;BME280;5572;49.540;11.932;2023-04-25T06:28:57;95635.91;;;8.67;100.00
11038;BME280;5572;49.540;11.932;2023-04-25T06:31:24;95623.63;;;8.75;100.00
11038;BME280;5572;49.540;11.932;2023-04-25T06:33:53;95617.22;;;8.84;100.00
11038;BME280;5572;49.540;11.932;2023-04-25T06:36:34;95603.56;;;8.81;100.00
11038;BME280;5572;49.540;11.932;2023-04-25T06:39:03;95598.69;;;8.83;100.00
11038;BME280;5572;49.540;11.932;2023-04-25T06:41:30;95588.00;;;8.91;100.00
11038;BME280;5572;49.540;11.932;2023-04-25T06:43:57;95585.31;;;8.51;100.00
11038;BME280;5572;49.540;11.932;2023-04-25T06:46:23;95590.63;;;8.56;100.00
11038;BME280;5572;49.540;11.932;2023-04-25T06:48:50;95588.53;;;8.40;100.00
11038;BME280;5572;49.540;11.932;2023-04-25T06:51:18;95595.72;;;8.31;100.00
11038;BME280;5572;49.540;11.932;2023-04-25T06:53:44;95583.84;;;8.45;100.00
11038;BME280;5572;49.540;11.932;2023-04-25T06:56:11;95573.28;;;8.49;100.00
11038;BME280;5572;49.540;11.932;2023-04-25T06:58:38;95573.56;;;8.60;100.00
11038;BME280;5572;49.540;11.932;2023-04-25T07:01:04;95575.16;;;8.75;100.00
11038;BME280;5572;49.540;11.932;2023-04-25T07:03:31;95558.34;;;8.91;100.00
11038;BME280;5572;49.540;11.932;2023-04-25T07:05:57;95568.69;;;8.62;100.00
11038;BME280;5572;49.540;11.932;2023-04-25T07:08:26;95559.88;;;8.70;100.00
11038;BME280;5572;49.540;11.932;2023-04-25T07:10:53;95555.78;;;8.73;100.00
11038;BME280;5572;49.540;11.932;2023-04-25T07:13:19;95557.16;;;8.84;100.00
11038;BME280;5572;49.540;11.932;2023-04-25T07:15:46;95549.91;;;8.71;100.00
11038;BME280;5572;49.540;11.932;2023-04-25T07:18:13;95553.13;;;8.59;100.00
11038;BME280;5572;49.540;11.932;2023-04-25T07:20:40;95536.63;;;8.74;100.00
11038;BME280;5572;49.540;11.932;2023-04-25T07:23:07;95533.31;;;8.77;100.00
11038;BME280;5572;49.540;11.932;2023-04-25T07:25:35;95549.66;;;8.94;100.00
11038;BME280;5572;49.540;11.932;2023-04-25T07:28:01;95535.78;;;8.87;100.00
11038;BME280;5572;49.540;11.932;2023-04-25T07:30:28;95544.09;;;8.77;100.00
11038;BME280;5572;49.540;11.932;2023-04-25T07:32:54;95571.94;;;8.73;100.00
11038;BME280;5572;49.540;11.932;2023-04-25T07:35:21;95575.25;;;8.43;100.00
11038;BME280;5572;49.540;11.932;2023-04-25T07:37:48;95577.97;;;8.30;100.00
11038;BME280;5572;49.540;11.932;2023-04-25T07:40:15;95576.06;;;8.30;100.00
11038;BME280;5572;49.540;11.932;2023-04-25T07:42:43;95576.28;;;7.88;100.00
11038;BME280;5572;49.540;11.932;2023-04-25T07:45:10;95568.81;;;7.85;100.00
11038;BME280;5572;49.540;11.932;2023-04-25T07:47:37;95579.72;;;7.62;100.00
11038;BME280;5572;49.540;11.932;2023-04-25T07:50:05;95563.50;;;7.80;100.00
11038;BME280;5572;49.540;11.932;2023-04-25T07:52:31;95555.06;;;8.00;100.00
11038;BME280;5572;49.540;11.932;2023-04-25T07:54:58;95570.22;;;7.96;100.00
11038;BME280;5572;49.540;11.932;2023-04-25T07:57:25;95556.72;;;8.28;100.00
11038;BME280;5572;49.540;11.932;2023-04-25T07:59:53;95593.41;;;7.92;100.00
11038;BME280;5572;49.540;11.932;2023-04-25T08:02:20;95601.44;;;8.11;100.00
11038;BME280;5572;49.540;11.932;2023-04-25T08:04:46;95624.25;;;8.00;100.00
11038;BME280;5572;49.540;11.932;2023-04-25T08:07:14;95599.41;;;8.75;100.00
11038;BME280;5572;49.540;11.932;2023-04-25T08:09:41;95591.28;;;8.88;100.00
11038;BME280;5572;49.540;11.932;2023-04-25T08:12:07;95613.19;;;8.15;100.00
11038;BME280;5572;49.540;11.932;2023-04-25T08:14:37;95609.56;;;8.24;100.00
11038;BME280;5572;49.540;11.932;2023-04-25T08:17:07;95600.09;;;8.53;100.00
11038;BME280;5572;49.540;11.932;2023-04-25T08:19:37;95597.19;;;8.77;100.00
11038;BME280;5572;49.540;11.932;2023-04-25T09:29:30;95591.47;;;10.06;100.00
11038;BME280;5572;49.540;11.932;2023-04-25T09:32:15;95637.25;;;9.54;100.00
11038;BME280;5572;49.540;11.932;2023-04-25T09:34:44;95618.63;;;9.88;100.00
11038;BME280;5572;49.540;11.932;2023-04-25T09:37:17;95624.81;;;9.88;100.00
11038;BME280;5572;49.540;11.932;2023-04-25T09:39:44;95620.09;;;10.16;100.00
11038;BME280;5572;49.540;11.932;2023-04-25T09:42:11;95633.31;;;10.17;100.00
11038;BME280;5572;49.540;11.932;2023-04-25T09:44:42;95646.88;;;10.04;100.00
11038;BME280;5572;49.540;11.932;2023-04-25T09:47:09;95653.06;;;10.04;100.00
11038;BME280;5572;49.540;11.932;2023-04-25T09:49:39;95645.28;;;10.55;100.00
11038;BME280;5572;49.540;11.932;2023-04-25T09:52:06;95641.72;;;10.85;100.00
11038;BME280;5572;49.540;11.932;2023-04-25T09:54:33;95680.75;;;10.31;100.00
11038;BME280;5572;49.540;11.932;2023-04-25T09:57:06;95688.34;;;10.08;100.00
11038;BME280;5572;49.540;11.932;2023-04-25T10:03:00;95698.16;;;10.47;100.00
11038;BME280;5572;49.540;11.932;2023-04-25T10:05:30;95690.03;;;11.25;100.00
11038;BME280;5572;49.540;11.932;2023-04-25T10:07:58;95705.47;;;12.14;100.00
11038;BME280;5572;49.540;11.932;2023-04-25T10:10:26;95724.13;;;12.32;100.00
11038;BME280;5572;49.540;11.932;2023-04-25T10:12:53;95731.00;;;12.21;100.00
11038;BME280;5572;49.540;11.932;2023-04-25T10:15:21;95734.59;;;11.66;100.00
11038;BME280;5572;49.540;11.932;2023-04-25T10:17:49;95765.00;;;11.24;100.00
11038;BME280;5572;49.540;11.932;2023-04-25T10:20:17;95777.00;;;10.49;100.00
11038;BME280;5572;49.540;11.932;2023-04-25T10:22:44;95778.19;;;10.43;100.00
11038;BME280;5572;49.540;11.932;2023-04-25T10:25:14;95813.97;;;9.65;100.00
11038;BME280;5572;49.540;11.932;2023-04-25T10:27:41;95811.00;;;9.66;100.00
11038;BME280;5572;49.540;11.932;2023-04-25T10:30:09;95811.91;;;10.24;100.00
11038;BME280;5572;49.540;11.932;2023-04-25T10:32:37;95805.97;;;10.57;100.00
11038;BME280;5572;49.540;11.932;2023-04-25T10:35:12;95807.75;;;10.62;100.00
11038;BME280;5572;49.540;11.932;2023-04-25T10:38:04;95799.91;;;11.04;100.00
11038;BME280;5572;49.540;11.932;2023-04-25T10:40:31;95802.56;;;10.96;100.00
11038;BME280;5572;49.540;11.932;2023-04-25T10:45:59;95836.31;;;10.19;100.00
11038;BME280;5572;49.540;11.932;2023-04-25T10:48:26;95817.31;;;10.90;100.00
11038;BME280;5572;49.540;11.932;2023-04-25T10:51:07;95828.16;;;10.68;100.00
11038;BME280;5572;49.540;11.932;2023-04-25T10:53:36;95790.09;;;12.36;100.00
11038;BME280;5572;49.540;11.932;2023-04-25T10:56:09;95806.25;;;11.69;100.00
11038;BME280;5572;49.540;11.932;2023-04-25T10:58:41;95815.38;;;11.81;100.00
11038;BME280;5572;49.540;11.932;2023-04-25T11:01:08;95793.63;;;12.62;100.00
11038;BME280;5572;49.540;11.932;2023-04-25T11:03:39;95815.16;;;11.69;100.00
11038;BME280;5572;49.540;11.932;2023-04-25T11:06:12;95813.63;;;11.94;100.00
11038;BME280;5572;49.540;11.932;2023-04-25T11:08:52;95807.19;;;12.62;100.00
11038;BME280;5572;49.540;11.932;2023-04-25T11:11:19;95744.69;;;13.79;100.00
11038;BME280;5572;49.540;11.932;2023-04-25T11:13:48;95731.72;;;13.27;100.00
11038;BME280;5572;49.540;11.932;2023-04-25T11:16:15;95709.38;;;13.79;100.00
11038;BME280;5572;49.540;11.932;2023-04-25T11:18:42;95743.84;;;13.29;100.00
11038;BME280;5572;49.540;11.932;2023-04-25T11:21:09;95749.75;;;13.23;100.00
11038;BME280;5572;49.540;11.932;2023-04-25T11:23:36;95787.06;;;12.38;100.00
11038;BME280;5572;49.540;11.932;2023-04-25T11:26:04;95765.03;;;12.82;100.00
11038;BME280;5572;49.540;11.932;2023-04-25T11:28:30;95730.72;;;13.69;100.00
11038;BME280;5572;49.540;11.932;2023-04-25T11:30:57;95701.47;;;14.35;100.00
11038;BME280;5572;49.540;11.932;2023-04-25T11:33:25;95711.22;;;13.67;100.00
11038;BME280;5572;49.540;11.932;2023-04-25T11:35:53;95723.59;;;13.56;100.00
11038;BME280;5572;49.540;11.932;2023-04-25T11:38:21;95737.97;;;13.19;100.00
11038;BME280;5572;49.540;11.932;2023-04-25T11:40:50;95734.69;;;12.88;100.00
11038;BME280;5572;49.540;11.932;2023-04-25T11:43:20;95705.63;;;13.05;100.00
11038;BME280;5572;49.540;11.932;2023-04-25T11:45:47;95750.41;;;12.06;100.00
11038;BME280;5572;49.540;11.932;2023-04-25T11:48:14;95795.31;;;11.82;100.00
11038;BME280;5572;49.540;11.932;2023-04-25T11:50:41;95821.28;;;11.83;100.00
11038;BME280;5572;49.540;11.932;2023-04-25T11:53:07;95835.84;;;12.12;100.00
11038;BME280;5572;49.540;11.932;2023-04-25T11:55:34;95857.41;;;11.79;100.00
11038;BME280;5572;49.540;11.932;2023-04-25T11:58:01;95871.84;;;11.66;100.00
11038;BME280;5572;49.540;11.932;2023-04-25T12:00:31;95847.81;;;11.64;100.00
11038;BME280;5572;49.540;11.932;2023-04-25T12:02:58;95853.06;;;11.39;100.00
11038;BME280;5572;49.540;11.932;2023-04-25T12:05:26;95848.47;;;11.09;100.00
11038;BME280;5572;49.540;11.932;2023-04-25T12:07:53;95821.69;;;11.60;100.00
11038;BME280;5572;49.540;11.932;2023-04-25T12:10:20;95772.25;;;12.52;100.00
11038;BME280;5572;49.540;11.932;2023-04-25T12:12:48;95743.72;;;12.46;100.00
11038;BME280;5572;49.540;11.932;2023-04-25T12:15:16;95744.84;;;12.37;100.00
11038;BME280;5572;49.540;11.932;2023-04-25T12:17:47;95740.19;;;12.63;100.00
11038;BME280;5572;49.540;11.932;2023-04-25T12:20:15;95736.38;;;12.47;100.00
11038;BME280;5572;49.540;11.932;2023-04-25T12:22:42;95763.16;;;12.57;100.00
11038;BME280;5572;49.540;11.932;2023-04-25T12:25:11;95769.53;;;12.61;100.00
11038;BME280;5572;49.540;11.932;2023-04-25T12:27:38;95768.69;;;12.86;100.00
11038;BME280;5572;49.540;11.932;2023-04-25T12:30:08;95790.06;;;12.87;100.00
11038;BME280;5572;49.540;11.932;2023-04-25T12:32:35;95755.78;;;13.37;100.00
11038;BME280;5572;49.540;11.932;2023-04-25T12:35:05;95725.47;;;12.81;100.00
11038;BME280;5572;49.540;11.932;2023-04-25T12:37:31;95696.94;;;13.49;100.00
11038;BME280;5572;49.540;11.932;2023-04-25T12:39:58;95692.50;;;13.16;100.00
11038;BME280;5572;49.540;11.932;2023-04-25T12:42:24;95709.56;;;12.62;100.00
11038;BME280;5572;49.540;11.932;2023-04-25T12:44:51;95718.00;;;12.61;100.00
11038;BME280;5572;49.540;11.932;2023-04-25T12:47:17;95673.09;;;14.04;100.00
11038;BME280;5572;49.540;11.932;2023-04-25T12:49:44;95620.53;;;13.39;100.00
11038;BME280;5572;49.540;11.932;2023-04-25T12:52:12;95629.97;;;13.04;100.00
11038;BME280;5572;49.540;11.932;2023-04-25T12:54:38;95603.94;;;12.28;100.00
11038;BME280;5572;49.540;11.932;2023-04-25T12:57:05;95628.75;;;12.93;100.00
11038;BME280;5572;49.540;11.932;2023-04-25T12:59:32;95605.44;;;13.00;100.00
11038;BME280;5572;49.540;11.932;2023-04-25T13:01:59;95613.66;;;13.82;100.00
11038;BME280;5572;49.540;11.932;2023-04-25T13:04:25;95567.63;;;13.45;100.00
11038;BME280;5572;49.540;11.932;2023-04-25T13:06:52;95585.03;;;13.84;100.00
11038;BME280;5572;49.540;11.932;2023-04-25T13:09:20;95590.63;;;12.98;100.00
11038;BME280;5572;49.540;11.932;2023-04-25T13:11:46;95587.53;;;13.08;100.00
11038;BME280;5572;49.540;11.932;2023-04-25T13:14:13;95625.88;;;13.27;100.00
11038;BME280;5572;49.540;11.932;2023-04-25T13:16:40;95626.84;;;12.85;100.00
11038;BME280;5572;49.540;11.932;2023-04-25T13:19:07;95668.72;;;12.59;100.00
11038;BME280;5572;49.540;11.932;2023-04-25T13:21:36;95679.13;;;12.48;100.00
11038;BME280;5572;49.540;11.932;2023-04-25T13:24:03;95643.69;;;12.70;100.00
11038;BME280;5572;49.540;11.932;2023-04-25T13:26:31;95652.44;;;12.67;100.00
11038;BME280;5572;49.540;11.932;2023-04-25T13:28:58;95665.03;;;12.72;100.00
11038;BME280;5572;49.540;11.932;2023-04-25T13:31:25;95669.88;;;12.49;100.00
11038;BME280;5572;49.540;11.932;2023-04-25T13:33:52;95664.47;;;13.03;100.00
11038;BME280;5572;49.540;11.932;2023-04-25T13:36:19;95680.53;;;12.54;100.00
11038;BME280;5572;49.540;11.932;2023-04-25T13:38:45;95757.22;;;11.79;100.00
11038;BME280;5572;49.540;11.932;2023-04-25T13:41:13;95776.47;;;11.69;100.00
11038;BME280;5572;49.540;11.932;2023-04-25T13:43:45;95810.44;;;11.83;100.00
11038;BME280;5572;49.540;11.932;2023-04-25T13:46:13;95839.22;;;12.35;100.00
11038;BME280;5572;49.540;11.932;2023-04-25T13:48:41;95876.84;;;11.81;100.00
11038;BME280;5572;49.540;11.932;2023-04-25T13:54:02;95875.50;;;12.08;100.00
11038;BME280;5572;49.540;11.932;2023-04-25T13:56:29;95897.88;;;12.22;100.00
11038;BME280;5572;49.540;11.932;2023-04-25T13:58:57;95899.66;;;12.61;100.00
11038;BME280;5572;49.540;11.932;2023-04-25T14:01:24;95910.41;;;12.10;100.00
11038;BME280;5572;49.540;11.932;2023-04-25T14:03:51;95906.16;;;11.79;100.00
11038;BME280;5572;49.540;11.932;2023-04-25T14:06:18;95925.28;;;11.82;100.00
11038;BME280;5572;49.540;11.932;2023-04-25T14:08:48;95947.09;;;11.77;100.00
11038;BME280;5572;49.540;11.932;2023-04-25T14:11:15;95978.28;;;11.75;100.00
11038;BME280;5572;49.540;11.932;2023-04-25T14:13:43;95979.56;;;11.77;100.00
11038;BME280;5572;49.540;11.932;2023-04-25T14:19:27;96007.56;;;11.29;100.00
11038;BME280;5572;49.540;11.932;2023-04-25T14:21:54;96001.34;;;11.72;100.00
11038;BME280;5572;49.540;11.932;2023-04-25T14:24:21;96025.91;;;11.76;100.00
11038;BME280;5572;49.540;11.932;2023-04-25T14:26:47;96045.81;;;11.36;100.00